sensor_id;sensor_type;location;lat;lon;timestamp;P1;durP1;ratioP1;P2;durP2;ratioP2
16870;SDS011;8552;48.120;-1.456;2022-09-27T00:01:38;7.95;;;1.92;;
16870;SDS011;8552;48.120;-1.456;2022-09-27T00:04:04;5.85;;;1.30;;
16870;SDS011;8552;48.120;-1.456;2022-09-27T00:06:30;7.72;;;1.67;;
16870;SDS011;8552;48.120;-1.456;2022-09-27T00:08:56;9.27;;;2.10;;
16870;SDS011;8552;48.120;-1.456;2022-09-27T00:13:54;12.18;;;2.08;;
16870;SDS011;8552;48.120;-1.456;2022-09-27T00:16:22;11.48;;;1.90;;
16870;SDS011;8552;48.120;-1.456;2022-09-27T00:18:49;9.73;;;2.20;;
16870;SDS011;8552;48.120;-1.456;2022-09-27T00:21:15;15.80;;;2.55;;
16870;SDS011;8552;48.120;-1.456;2022-09-27T00:23:41;11.85;;;1.98;;
16870;SDS011;8552;48.120;-1.456;2022-09-27T00:26:07;8.70;;;2.05;;
16870;SDS011;8552;48.120;-1.456;2022-09-27T00:28:36;14.32;;;2.08;;
16870;SDS011;8552;48.120;-1.456;2022-09-27T00:31:02;11.07;;;2.15;;
16870;SDS011;8552;48.120;-1.456;2022-09-27T00:33:28;8.02;;;1.92;;
16870;SDS011;8552;48.120;-1.456;2022-09-27T00:35:54;5.78;;;1.52;;
16870;SDS011;8552;48.120;-1.456;2022-09-27T00:38:27;10.20;;;2.05;;
16870;SDS011;8552;48.120;-1.456;2022-09-27T00:40:52;9.50;;;1.75;;
16870;SDS011;8552;48.120;-1.456;2022-09-27T00:43:21;7.13;;;2.30;;
16870;SDS011;8552;48.120;-1.456;2022-09-27T00:46:21;6.28;;;1.65;;
16870;SDS011;8552;48.120;-1.456;2022-09-27T00:48:43;8.65;;;1.77;;
16870;SDS011;8552;48.120;-1.456;2022-09-27T00:51:11;7.00;;;1.55;;
16870;SDS011;8552;48.120;-1.456;2022-09-27T00:53:38;7.03;;;1.48;;
16870;SDS011;8552;48.120;-1.456;2022-09-27T00:56:12;7.07;;;1.73;;
16870;SDS011;8552;48.120;-1.456;2022-09-27T00:58:45;9.85;;;1.92;;
16870;SDS011;8552;48.120;-1.456;2022-09-27T01:01:16;12.15;;;2.08;;
16870;SDS011;8552;48.120;-1.456;2022-09-27T01:03:43;8.65;;;1.65;;
16870;SDS011;8552;48.120;-1.456;2022-09-27T01:06:17;5.05;;;1.73;;
16870;SDS011;8552;48.120;-1.456;2022-09-27T01:08:44;7.65;;;1.75;;
16870;SDS011;8552;48.120;-1.456;2022-09-27T01:22:43;7.50;;;1.17;;
16870;SDS011;8552;48.120;-1.456;2022-09-27T01:31:22;4.05;;;1.73;;
16870;SDS011;8552;48.120;-1.456;2022-09-27T01:42:06;6.43;;;1.60;;
16870;SDS011;8552;48.120;-1.456;2022-09-27T01:44:48;8.57;;;1.42;;
16870;SDS011;8552;48.120;-1.456;2022-09-27T01:47:19;6.57;;;1.63;;
16870;SDS011;8552;48.120;-1.456;2022-09-27T01:52:22;10.77;;;1.33;;
16870;SDS011;8552;48.120;-1.456;2022-09-27T01:54:54;8.43;;;1.52;;
16870;SDS011;8552;48.120;-1.456;2022-09-27T01:57:24;10.35;;;1.27;;
16870;SDS011;8552;48.120;-1.456;2022-09-27T01:59:57;7.53;;;1.45;;
16870;SDS011;8552;48.120;-1.456;2022-09-27T02:02:26;11.38;;;1.58;;
16870;SDS011;8552;48.120;-1.456;2022-09-27T02:04:55;7.22;;;1.63;;
16870;SDS011;8552;48.120;-1.456;2022-09-27T02:07:31;8.00;;;1.15;;
16870;SDS011;8552;48.120;-1.456;2022-09-27T02:10:05;11.75;;;1.90;;
16870;SDS011;8552;48.120;-1.456;2022-09-27T02:12:45;7.45;;;1.33;;
16870;SDS011;8552;48.120;-1.456;2022-09-27T02:15:21;5.90;;;1.50;;
16870;SDS011;8552;48.120;-1.456;2022-09-27T02:17:57;11.43;;;2.65;;
16870;SDS011;8552;48.120;-1.456;2022-09-27T02:20:36;5.32;;;1.63;;
16870;SDS011;8552;48.120;-1.456;2022-09-27T02:25:56;11.02;;;1.67;;
16870;SDS011;8552;48.120;-1.456;2022-09-27T02:30:59;9.80;;;1.40;;
16870;SDS011;8552;48.120;-1.456;2022-09-27T02:33:27;8.95;;;2.00;;
16870;SDS011;8552;48.120;-1.456;2022-09-27T02:35:57;6.20;;;1.63;;
16870;SDS011;8552;48.120;-1.456;2022-09-27T02:38:23;7.72;;;1.80;;
16870;SDS011;8552;48.120;-1.456;2022-09-27T02:40:49;6.18;;;1.20;;
16870;SDS011;8552;48.120;-1.456;2022-09-27T02:43:15;5.28;;;1.77;;
16870;SDS011;8552;48.120;-1.456;2022-09-27T02:51:14;6.00;;;1.55;;
16870;SDS011;8552;48.120;-1.456;2022-09-27T02:57:09;12.50;;;2.72;;
16870;SDS011;8552;48.120;-1.456;2022-09-27T03:00:00;7.70;;;2.03;;
16870;SDS011;8552;48.120;-1.456;2022-09-27T03:02:41;9.63;;;1.48;;
16870;SDS011;8552;48.120;-1.456;2022-09-27T03:05:23;8.30;;;2.10;;
16870;SDS011;8552;48.120;-1.456;2022-09-27T03:07:51;9.95;;;1.45;;
16870;SDS011;8552;48.120;-1.456;2022-09-27T03:10:18;11.65;;;2.58;;
16870;SDS011;8552;48.120;-1.456;2022-09-27T03:12:48;7.47;;;1.83;;
16870;SDS011;8552;48.120;-1.456;2022-09-27T03:15:15;11.00;;;1.90;;
16870;SDS011;8552;48.120;-1.456;2022-09-27T03:17:40;7.85;;;1.48;;
16870;SDS011;8552;48.120;-1.456;2022-09-27T03:20:06;7.63;;;1.65;;
16870;SDS011;8552;48.120;-1.456;2022-09-27T03:22:33;7.72;;;1.60;;
16870;SDS011;8552;48.120;-1.456;2022-09-27T03:24:59;10.40;;;2.03;;
16870;SDS011;8552;48.120;-1.456;2022-09-27T03:27:25;7.35;;;2.63;;
16870;SDS011;8552;48.120;-1.456;2022-09-27T03:29:51;9.63;;;1.67;;
16870;SDS011;8552;48.120;-1.456;2022-09-27T03:32:16;14.15;;;1.67;;
16870;SDS011;8552;48.120;-1.456;2022-09-27T03:34:43;7.82;;;1.90;;
16870;SDS011;8552;48.120;-1.456;2022-09-27T03:37:08;11.55;;;2.28;;
16870;SDS011;8552;48.120;-1.456;2022-09-27T03:39:34;7.63;;;2.63;;
16870;SDS011;8552;48.120;-1.456;2022-09-27T03:42:00;9.70;;;1.83;;
16870;SDS011;8552;48.120;-1.456;2022-09-27T03:44:25;7.57;;;2.45;;
16870;SDS011;8552;48.120;-1.456;2022-09-27T03:46:51;10.05;;;2.28;;
16870;SDS011;8552;48.120;-1.456;2022-09-27T03:49:17;7.57;;;1.80;;
16870;SDS011;8552;48.120;-1.456;2022-09-27T03:51:43;7.97;;;2.00;;
16870;SDS011;8552;48.120;-1.456;2022-09-27T03:54:08;6.15;;;1.92;;
16870;SDS011;8552;48.120;-1.456;2022-09-27T03:56:34;8.00;;;2.22;;
16870;SDS011;8552;48.120;-1.456;2022-09-27T03:59:00;8.10;;;2.00;;
16870;SDS011;8552;48.120;-1.456;2022-09-27T04:01:26;8.82;;;1.90;;
16870;SDS011;8552;48.120;-1.456;2022-09-27T04:03:52;7.75;;;2.08;;
16870;SDS011;8552;48.120;-1.456;2022-09-27T04:06:18;10.45;;;2.00;;
16870;SDS011;8552;48.120;-1.456;2022-09-27T04:08:44;10.95;;;1.92;;
16870;SDS011;8552;48.120;-1.456;2022-09-27T04:11:11;5.95;;;1.58;;
16870;SDS011;8552;48.120;-1.456;2022-09-27T04:13:39;10.70;;;2.25;;
16870;SDS011;8552;48.120;-1.456;2022-09-27T04:16:05;10.18;;;1.85;;
16870;SDS011;8552;48.120;-1.456;2022-09-27T04:18:32;7.35;;;1.92;;
16870;SDS011;8552;48.120;-1.456;2022-09-27T04:20:57;8.70;;;1.75;;
16870;SDS011;8552;48.120;-1.456;2022-09-27T04:23:23;9.13;;;1.52;;
16870;SDS011;8552;48.120;-1.456;2022-09-27T04:25:49;7.85;;;2.15;;
16870;SDS011;8552;48.120;-1.456;2022-09-27T04:28:14;7.35;;;1.48;;
16870;SDS011;8552;48.120;-1.456;2022-09-27T04:30:40;9.52;;;1.67;;
16870;SDS011;8552;48.120;-1.456;2022-09-27T04:33:06;9.30;;;1.90;;
16870;SDS011;8552;48.120;-1.456;2022-09-27T04:35:32;9.82;;;1.90;;
16870;SDS011;8552;48.120;-1.456;2022-09-27T04:38:16;11.15;;;2.50;;
16870;SDS011;8552;48.120;-1.456;2022-09-27T04:40:46;8.93;;;2.03;;
16870;SDS011;8552;48.120;-1.456;2022-09-27T04:43:13;8.70;;;1.95;;
16870;SDS011;8552;48.120;-1.456;2022-09-27T04:45:38;6.97;;;1.77;;
16870;SDS011;8552;48.120;-1.456;2022-09-27T04:48:04;11.27;;;1.77;;
16870;SDS011;8552;48.120;-1.456;2022-09-27T04:50:29;4.97;;;1.30;;
16870;SDS011;8552;48.120;-1.456;2022-09-27T04:52:56;26.50;;;2.38;;
16870;SDS011;8552;48.120;-1.456;2022-09-27T04:55:22;15.65;;;2.65;;
16870;SDS011;8552;48.120;-1.456;2022-09-27T04:57:48;11.90;;;1.90;;
16870;SDS011;8552;48.120;-1.456;2022-09-27T05:00:14;6.13;;;1.95;;
16870;SDS011;8552;48.120;-1.456;2022-09-27T05:02:41;10.80;;;1.90;;
16870;SDS011;8552;48.120;-1.456;2022-09-27T05:05:08;13.07;;;2.58;;
16870;SDS011;8552;48.120;-1.456;2022-09-27T05:07:34;12.05;;;2.13;;
16870;SDS011;8552;48.120;-1.456;2022-09-27T05:10:01;6.18;;;1.52;;
16870;SDS011;8552;48.120;-1.456;2022-09-27T05:12:27;7.88;;;2.47;;
16870;SDS011;8552;48.120;-1.456;2022-09-27T05:14:52;25.15;;;2.58;;
16870;SDS011;8552;48.120;-1.456;2022-09-27T05:17:18;12.63;;;2.15;;
16870;SDS011;8552;48.120;-1.456;2022-09-27T05:19:45;11.40;;;2.08;;
16870;SDS011;8552;48.120;-1.456;2022-09-27T05:22:11;7.30;;;1.58;;
16870;SDS011;8552;48.120;-1.456;2022-09-27T05:24:37;5.50;;;1.77;;
16870;SDS011;8552;48.120;-1.456;2022-09-27T05:27:03;13.30;;;2.00;;
16870;SDS011;8552;48.120;-1.456;2022-09-27T05:29:32;11.63;;;2.58;;
16870;SDS011;8552;48.120;-1.456;2022-09-27T05:31:59;9.60;;;2.08;;
16870;SDS011;8552;48.120;-1.456;2022-09-27T05:34:25;8.90;;;2.20;;
16870;SDS011;8552;48.120;-1.456;2022-09-27T05:36:50;7.07;;;2.05;;
16870;SDS011;8552;48.120;-1.456;2022-09-27T05:39:16;10.43;;;2.00;;
16870;SDS011;8552;48.120;-1.456;2022-09-27T05:41:42;9.05;;;2.20;;
16870;SDS011;8552;48.120;-1.456;2022-09-27T05:44:09;8.25;;;1.77;;
16870;SDS011;8552;48.120;-1.456;2022-09-27T05:46:35;11.05;;;2.15;;
16870;SDS011;8552;48.120;-1.456;2022-09-27T05:49:00;10.57;;;2.35;;
16870;SDS011;8552;48.120;-1.456;2022-09-27T05:51:26;7.72;;;1.92;;
16870;SDS011;8552;48.120;-1.456;2022-09-27T05:53:52;6.53;;;1.80;;
16870;SDS011;8552;48.120;-1.456;2022-09-27T05:56:17;7.50;;;2.22;;
16870;SDS011;8552;48.120;-1.456;2022-09-27T05:58:43;13.13;;;2.15;;
16870;SDS011;8552;48.120;-1.456;2022-09-27T06:01:09;11.73;;;1.77;;
16870;SDS011;8552;48.120;-1.456;2022-09-27T06:03:35;6.75;;;1.70;;
16870;SDS011;8552;48.120;-1.456;2022-09-27T06:06:01;11.98;;;2.00;;
16870;SDS011;8552;48.120;-1.456;2022-09-27T06:08:34;5.82;;;2.15;;
16870;SDS011;8552;48.120;-1.456;2022-09-27T06:11:02;6.55;;;1.95;;
16870;SDS011;8552;48.120;-1.456;2022-09-27T06:13:29;16.83;;;4.30;;
16870;SDS011;8552;48.120;-1.456;2022-09-27T06:15:57;13.23;;;2.70;;
16870;SDS011;8552;48.120;-1.456;2022-09-27T06:18:23;9.02;;;2.55;;
16870;SDS011;8552;48.120;-1.456;2022-09-27T06:20:49;10.88;;;2.85;;
16870;SDS011;8552;48.120;-1.456;2022-09-27T06:23:19;12.40;;;2.67;;
16870;SDS011;8552;48.120;-1.456;2022-09-27T06:25:46;6.72;;;1.77;;
16870;SDS011;8552;48.120;-1.456;2022-09-27T06:28:13;7.07;;;1.42;;
16870;SDS011;8552;48.120;-1.456;2022-09-27T06:30:40;9.43;;;2.22;;
16870;SDS011;8552;48.120;-1.456;2022-09-27T06:33:11;9.45;;;1.73;;
16870;SDS011;8552;48.120;-1.456;2022-09-27T06:35:39;7.47;;;1.85;;
16870;SDS011;8552;48.120;-1.456;2022-09-27T06:38:06;10.40;;;2.25;;
16870;SDS011;8552;48.120;-1.456;2022-09-27T06:40:34;10.05;;;1.52;;
16870;SDS011;8552;48.120;-1.456;2022-09-27T06:43:04;5.30;;;1.77;;
16870;SDS011;8552;48.120;-1.456;2022-09-27T06:45:35;10.23;;;1.50;;
16870;SDS011;8552;48.120;-1.456;2022-09-27T06:48:01;5.40;;;1.75;;
16870;SDS011;8552;48.120;-1.456;2022-09-27T06:50:34;14.00;;;2.75;;
16870;SDS011;8552;48.120;-1.456;2022-09-27T06:53:02;8.30;;;2.05;;
16870;SDS011;8552;48.120;-1.456;2022-09-27T06:55:29;13.05;;;2.50;;
16870;SDS011;8552;48.120;-1.456;2022-09-27T06:57:55;13.02;;;2.92;;
16870;SDS011;8552;48.120;-1.456;2022-09-27T07:00:41;11.00;;;2.10;;
16870;SDS011;8552;48.120;-1.456;2022-09-27T07:03:10;10.02;;;2.13;;
16870;SDS011;8552;48.120;-1.456;2022-09-27T07:05:37;9.90;;;1.90;;
16870;SDS011;8552;48.120;-1.456;2022-09-27T07:08:03;9.90;;;2.47;;
16870;SDS011;8552;48.120;-1.456;2022-09-27T07:10:33;10.40;;;2.15;;
16870;SDS011;8552;48.120;-1.456;2022-09-27T07:13:06;14.18;;;2.92;;
16870;SDS011;8552;48.120;-1.456;2022-09-27T07:15:33;6.03;;;1.70;;
16870;SDS011;8552;48.120;-1.456;2022-09-27T07:18:03;10.40;;;2.17;;
16870;SDS011;8552;48.120;-1.456;2022-09-27T07:20:30;7.25;;;2.13;;
16870;SDS011;8552;48.120;-1.456;2022-09-27T07:22:57;11.90;;;2.10;;
16870;SDS011;8552;48.120;-1.456;2022-09-27T07:25:23;14.43;;;3.63;;
16870;SDS011;8552;48.120;-1.456;2022-09-27T07:27:50;7.35;;;2.10;;
16870;SDS011;8552;48.120;-1.456;2022-09-27T07:30:19;14.77;;;3.33;;
16870;SDS011;8552;48.120;-1.456;2022-09-27T07:32:46;15.13;;;2.33;;
16870;SDS011;8552;48.120;-1.456;2022-09-27T07:35:12;11.15;;;2.47;;
16870;SDS011;8552;48.120;-1.456;2022-09-27T07:37:39;8.63;;;1.75;;
16870;SDS011;8552;48.120;-1.456;2022-09-27T07:40:07;5.82;;;1.92;;
16870;SDS011;8552;48.120;-1.456;2022-09-27T07:42:34;10.52;;;2.70;;
16870;SDS011;8552;48.120;-1.456;2022-09-27T07:45:05;18.40;;;2.70;;
16870;SDS011;8552;48.120;-1.456;2022-09-27T07:47:32;9.77;;;2.17;;
16870;SDS011;8552;48.120;-1.456;2022-09-27T07:49:58;12.82;;;2.63;;
16870;SDS011;8552;48.120;-1.456;2022-09-27T07:52:23;10.38;;;2.40;;
16870;SDS011;8552;48.120;-1.456;2022-09-27T07:54:50;8.30;;;1.77;;
16870;SDS011;8552;48.120;-1.456;2022-09-27T07:57:16;12.32;;;1.90;;
16870;SDS011;8552;48.120;-1.456;2022-09-27T07:59:46;10.38;;;1.88;;
16870;SDS011;8552;48.120;-1.456;2022-09-27T08:02:15;10.07;;;2.03;;
16870;SDS011;8552;48.120;-1.456;2022-09-27T08:04:41;13.15;;;2.35;;
16870;SDS011;8552;48.120;-1.456;2022-09-27T08:07:08;8.88;;;1.85;;
16870;SDS011;8552;48.120;-1.456;2022-09-27T08:09:35;12.60;;;2.38;;
16870;SDS011;8552;48.120;-1.456;2022-09-27T08:12:04;8.85;;;2.42;;
16870;SDS011;8552;48.120;-1.456;2022-09-27T08:14:29;7.00;;;2.15;;
16870;SDS011;8552;48.120;-1.456;2022-09-27T08:16:56;17.27;;;2.63;;
16870;SDS011;8552;48.120;-1.456;2022-09-27T08:19:21;13.75;;;2.20;;
16870;SDS011;8552;48.120;-1.456;2022-09-27T08:21:47;12.35;;;2.30;;
16870;SDS011;8552;48.120;-1.456;2022-09-27T08:24:15;7.43;;;1.75;;
16870;SDS011;8552;48.120;-1.456;2022-09-27T08:26:40;10.98;;;2.15;;
16870;SDS011;8552;48.120;-1.456;2022-09-27T08:29:06;10.82;;;2.30;;
16870;SDS011;8552;48.120;-1.456;2022-09-27T08:31:32;14.55;;;2.65;;
16870;SDS011;8552;48.120;-1.456;2022-09-27T08:33:57;9.40;;;2.08;;
16870;SDS011;8552;48.120;-1.456;2022-09-27T08:36:23;12.95;;;2.30;;
16870;SDS011;8552;48.120;-1.456;2022-09-27T08:38:49;10.98;;;2.40;;
16870;SDS011;8552;48.120;-1.456;2022-09-27T08:44:16;10.57;;;3.13;;
16870;SDS011;8552;48.120;-1.456;2022-09-27T08:47:11;15.60;;;2.85;;
16870;SDS011;8552;48.120;-1.456;2022-09-27T08:49:46;9.05;;;2.15;;
16870;SDS011;8552;48.120;-1.456;2022-09-27T08:52:17;10.85;;;2.40;;
16870;SDS011;8552;48.120;-1.456;2022-09-27T08:54:51;12.95;;;2.67;;
16870;SDS011;8552;48.120;-1.456;2022-09-27T08:57:20;19.48;;;2.80;;
16870;SDS011;8552;48.120;-1.456;2022-09-27T09:00:09;9.82;;;2.65;;
16870;SDS011;8552;48.120;-1.456;2022-09-27T09:02:36;16.23;;;3.08;;
16870;SDS011;8552;48.120;-1.456;2022-09-27T09:05:13;13.15;;;2.40;;
16870;SDS011;8552;48.120;-1.456;2022-09-27T09:08:05;17.95;;;2.85;;
16870;SDS011;8552;48.120;-1.456;2022-09-27T09:10:56;9.90;;;2.40;;
16870;SDS011;8552;48.120;-1.456;2022-09-27T09:14:16;14.23;;;2.90;;
16870;SDS011;8552;48.120;-1.456;2022-09-27T09:17:03;17.52;;;3.38;;
16870;SDS011;8552;48.120;-1.456;2022-09-27T09:19:39;10.27;;;3.05;;
16870;SDS011;8552;48.120;-1.456;2022-09-27T09:25:02;12.00;;;2.70;;
16870;SDS011;8552;48.120;-1.456;2022-09-27T09:33:12;17.40;;;3.45;;
16870;SDS011;8552;48.120;-1.456;2022-09-27T09:36:11;8.85;;;3.20;;
16870;SDS011;8552;48.120;-1.456;2022-09-27T09:38:54;17.48;;;2.90;;
16870;SDS011;8552;48.120;-1.456;2022-09-27T09:46:56;10.25;;;3.08;;
16870;SDS011;8552;48.120;-1.456;2022-09-27T09:49:27;19.40;;;3.60;;
16870;SDS011;8552;48.120;-1.456;2022-09-27T09:52:04;13.30;;;3.35;;
16870;SDS011;8552;48.120;-1.456;2022-09-27T09:54:39;10.43;;;2.50;;
16870;SDS011;8552;48.120;-1.456;2022-09-27T09:57:19;14.25;;;4.05;;
16870;SDS011;8552;48.120;-1.456;2022-09-27T09:59:56;19.60;;;3.45;;
16870;SDS011;8552;48.120;-1.456;2022-09-27T10:02:38;12.00;;;2.78;;
16870;SDS011;8552;48.120;-1.456;2022-09-27T10:05:06;13.70;;;3.15;;
16870;SDS011;8552;48.120;-1.456;2022-09-27T10:07:35;19.00;;;3.50;;
16870;SDS011;8552;48.120;-1.456;2022-09-27T10:10:03;14.45;;;3.13;;
16870;SDS011;8552;48.120;-1.456;2022-09-27T10:12:31;15.23;;;3.22;;
16870;SDS011;8552;48.120;-1.456;2022-09-27T10:14:58;10.90;;;2.60;;
16870;SDS011;8552;48.120;-1.456;2022-09-27T10:17:27;15.55;;;2.88;;
16870;SDS011;8552;48.120;-1.456;2022-09-27T10:20:13;16.77;;;3.40;;
16870;SDS011;8552;48.120;-1.456;2022-09-27T10:22:52;13.07;;;4.30;;
16870;SDS011;8552;48.120;-1.456;2022-09-27T10:25:19;14.98;;;3.33;;
16870;SDS011;8552;48.120;-1.456;2022-09-27T10:27:46;12.80;;;2.95;;
16870;SDS011;8552;48.120;-1.456;2022-09-27T10:30:27;12.50;;;2.70;;
16870;SDS011;8552;48.120;-1.456;2022-09-27T10:33:03;23.17;;;3.38;;
16870;SDS011;8552;48.120;-1.456;2022-09-27T10:35:33;21.02;;;3.70;;
16870;SDS011;8552;48.120;-1.456;2022-09-27T10:40:55;12.45;;;3.15;;
16870;SDS011;8552;48.120;-1.456;2022-09-27T10:43:27;14.38;;;4.10;;
16870;SDS011;8552;48.120;-1.456;2022-09-27T10:46:04;13.48;;;3.13;;
16870;SDS011;8552;48.120;-1.456;2022-09-27T10:48:36;15.35;;;3.30;;
16870;SDS011;8552;48.120;-1.456;2022-09-27T10:51:06;13.75;;;3.45;;
16870;SDS011;8552;48.120;-1.456;2022-09-27T10:53:46;17.95;;;3.03;;
16870;SDS011;8552;48.120;-1.456;2022-09-27T10:56:22;17.33;;;3.83;;
16870;SDS011;8552;48.120;-1.456;2022-09-27T10:58:51;15.52;;;3.95;;
16870;SDS011;8552;48.120;-1.456;2022-09-27T11:01:19;11.95;;;3.25;;
16870;SDS011;8552;48.120;-1.456;2022-09-27T11:03:49;13.73;;;3.05;;
16870;SDS011;8552;48.120;-1.456;2022-09-27T11:08:47;15.27;;;3.65;;
16870;SDS011;8552;48.120;-1.456;2022-09-27T11:11:26;12.05;;;3.20;;
16870;SDS011;8552;48.120;-1.456;2022-09-27T11:14:01;18.55;;;4.40;;
16870;SDS011;8552;48.120;-1.456;2022-09-27T11:19:45;17.58;;;3.15;;
16870;SDS011;8552;48.120;-1.456;2022-09-27T11:43:34;15.48;;;3.60;;
16870;SDS011;8552;48.120;-1.456;2022-09-27T11:46:24;17.30;;;3.85;;
16870;SDS011;8552;48.120;-1.456;2022-09-27T11:49:02;15.90;;;3.55;;
16870;SDS011;8552;48.120;-1.456;2022-09-27T11:57:48;14.50;;;4.32;;
16870;SDS011;8552;48.120;-1.456;2022-09-27T12:00:59;17.98;;;3.92;;
16870;SDS011;8552;48.120;-1.456;2022-09-27T12:06:10;19.23;;;4.15;;
16870;SDS011;8552;48.120;-1.456;2022-09-27T12:11:52;14.23;;;3.75;;
16870;SDS011;8552;48.120;-1.456;2022-09-27T12:16:52;13.23;;;2.97;;
16870;SDS011;8552;48.120;-1.456;2022-09-27T12:19:39;17.75;;;3.60;;
16870;SDS011;8552;48.120;-1.456;2022-09-27T12:22:13;17.98;;;3.42;;
16870;SDS011;8552;48.120;-1.456;2022-09-27T12:24:43;16.80;;;3.60;;
16870;SDS011;8552;48.120;-1.456;2022-09-27T12:27:15;18.50;;;4.40;;
16870;SDS011;8552;48.120;-1.456;2022-09-27T12:29:46;18.98;;;4.28;;
16870;SDS011;8552;48.120;-1.456;2022-09-27T12:34:45;15.30;;;3.65;;
16870;SDS011;8552;48.120;-1.456;2022-09-27T12:37:37;22.42;;;5.22;;
16870;SDS011;8552;48.120;-1.456;2022-09-27T12:40:20;19.05;;;4.07;;
16870;SDS011;8552;48.120;-1.456;2022-09-27T12:45:19;14.23;;;3.30;;
16870;SDS011;8552;48.120;-1.456;2022-09-27T12:48:08;12.13;;;3.38;;
16870;SDS011;8552;48.120;-1.456;2022-09-27T12:50:51;9.48;;;3.10;;
16870;SDS011;8552;48.120;-1.456;2022-09-27T12:53:39;16.05;;;3.58;;
16870;SDS011;8552;48.120;-1.456;2022-09-27T12:59:24;16.88;;;4.28;;
16870;SDS011;8552;48.120;-1.456;2022-09-27T13:07:44;16.42;;;4.38;;
16870;SDS011;8552;48.120;-1.456;2022-09-27T13:11:04;11.93;;;3.80;;
16870;SDS011;8552;48.120;-1.456;2022-09-27T13:13:55;13.93;;;3.40;;
16870;SDS011;8552;48.120;-1.456;2022-09-27T13:16:24;14.25;;;3.58;;
16870;SDS011;8552;48.120;-1.456;2022-09-27T13:18:59;15.98;;;3.58;;
16870;SDS011;8552;48.120;-1.456;2022-09-27T13:24:57;19.98;;;4.05;;
16870;SDS011;8552;48.120;-1.456;2022-09-27T13:32:33;15.93;;;3.28;;
16870;SDS011;8552;48.120;-1.456;2022-09-27T13:35:20;11.05;;;2.78;;
16870;SDS011;8552;48.120;-1.456;2022-09-27T13:37:53;15.35;;;3.92;;
16870;SDS011;8552;48.120;-1.456;2022-09-27T13:43:04;11.70;;;2.47;;
16870;SDS011;8552;48.120;-1.456;2022-09-27T13:45:48;9.65;;;2.70;;
16870;SDS011;8552;48.120;-1.456;2022-09-27T13:56:58;12.27;;;3.10;;
16870;SDS011;8552;48.120;-1.456;2022-09-27T13:59:30;16.98;;;3.22;;
16870;SDS011;8552;48.120;-1.456;2022-09-27T14:02:20;11.48;;;2.53;;
16870;SDS011;8552;48.120;-1.456;2022-09-27T14:04:55;9.65;;;2.35;;
16870;SDS011;8552;48.120;-1.456;2022-09-27T14:07:25;12.75;;;2.90;;
16870;SDS011;8552;48.120;-1.456;2022-09-27T14:09:59;9.63;;;1.80;;
16870;SDS011;8552;48.120;-1.456;2022-09-27T14:12:36;9.23;;;2.20;;
16870;SDS011;8552;48.120;-1.456;2022-09-27T14:15:05;11.35;;;2.95;;
16870;SDS011;8552;48.120;-1.456;2022-09-27T14:17:32;11.85;;;2.58;;
16870;SDS011;8552;48.120;-1.456;2022-09-27T14:19:58;9.38;;;2.15;;
16870;SDS011;8552;48.120;-1.456;2022-09-27T14:22:25;10.00;;;2.33;;
16870;SDS011;8552;48.120;-1.456;2022-09-27T14:24:51;9.60;;;2.42;;
16870;SDS011;8552;48.120;-1.456;2022-09-27T14:27:19;14.13;;;3.33;;
16870;SDS011;8552;48.120;-1.456;2022-09-27T14:32:28;10.90;;;2.95;;
16870;SDS011;8552;48.120;-1.456;2022-09-27T14:35:14;11.48;;;2.58;;
16870;SDS011;8552;48.120;-1.456;2022-09-27T14:38:09;7.75;;;2.20;;
16870;SDS011;8552;48.120;-1.456;2022-09-27T14:40:41;10.82;;;2.45;;
16870;SDS011;8552;48.120;-1.456;2022-09-27T14:43:17;12.35;;;2.58;;
16870;SDS011;8552;48.120;-1.456;2022-09-27T14:45:44;14.77;;;3.78;;
16870;SDS011;8552;48.120;-1.456;2022-09-27T14:48:19;13.02;;;2.58;;
16870;SDS011;8552;48.120;-1.456;2022-09-27T14:53:29;9.38;;;2.53;;
16870;SDS011;8552;48.120;-1.456;2022-09-27T14:56:00;11.07;;;2.50;;
16870;SDS011;8552;48.120;-1.456;2022-09-27T14:58:27;10.48;;;2.60;;
16870;SDS011;8552;48.120;-1.456;2022-09-27T15:00:54;10.60;;;2.00;;
16870;SDS011;8552;48.120;-1.456;2022-09-27T15:03:30;7.82;;;1.80;;
16870;SDS011;8552;48.120;-1.456;2022-09-27T15:05:57;7.00;;;1.85;;
16870;SDS011;8552;48.120;-1.456;2022-09-27T15:08:27;5.60;;;1.40;;
16870;SDS011;8552;48.120;-1.456;2022-09-27T15:11:00;9.73;;;1.70;;
16870;SDS011;8552;48.120;-1.456;2022-09-27T15:13:29;10.90;;;3.13;;
16870;SDS011;8552;48.120;-1.456;2022-09-27T15:15:57;11.10;;;2.08;;
16870;SDS011;8552;48.120;-1.456;2022-09-27T15:18:38;9.65;;;1.92;;
16870;SDS011;8552;48.120;-1.456;2022-09-27T15:21:06;4.18;;;1.45;;
16870;SDS011;8552;48.120;-1.456;2022-09-27T15:23:38;8.82;;;1.60;;
16870;SDS011;8552;48.120;-1.456;2022-09-27T15:28:40;6.65;;;1.52;;
16870;SDS011;8552;48.120;-1.456;2022-09-27T15:31:07;6.47;;;1.70;;
16870;SDS011;8552;48.120;-1.456;2022-09-27T15:33:33;5.05;;;1.73;;
16870;SDS011;8552;48.120;-1.456;2022-09-27T15:36:01;7.18;;;2.40;;
16870;SDS011;8552;48.120;-1.456;2022-09-27T15:38:33;8.05;;;2.17;;
16870;SDS011;8552;48.120;-1.456;2022-09-27T15:41:07;9.18;;;1.88;;
16870;SDS011;8552;48.120;-1.456;2022-09-27T15:48:46;3.83;;;1.75;;
16870;SDS011;8552;48.120;-1.456;2022-09-27T15:51:44;9.85;;;1.52;;
16870;SDS011;8552;48.120;-1.456;2022-09-27T15:54:10;8.73;;;2.35;;
16870;SDS011;8552;48.120;-1.456;2022-09-27T15:56:40;9.88;;;2.22;;
16870;SDS011;8552;48.120;-1.456;2022-09-27T15:59:06;10.25;;;2.22;;
16870;SDS011;8552;48.120;-1.456;2022-09-27T16:01:47;7.15;;;1.90;;
16870;SDS011;8552;48.120;-1.456;2022-09-27T16:04:13;10.65;;;2.17;;
16870;SDS011;8552;48.120;-1.456;2022-09-27T16:06:39;9.13;;;2.72;;
16870;SDS011;8552;48.120;-1.456;2022-09-27T16:09:13;12.63;;;2.60;;
16870;SDS011;8552;48.120;-1.456;2022-09-27T16:11:44;8.57;;;2.25;;
16870;SDS011;8552;48.120;-1.456;2022-09-27T16:14:11;8.00;;;1.75;;
16870;SDS011;8552;48.120;-1.456;2022-09-27T16:16:41;9.40;;;2.22;;
16870;SDS011;8552;48.120;-1.456;2022-09-27T16:19:11;10.23;;;1.92;;
16870;SDS011;8552;48.120;-1.456;2022-09-27T16:21:37;7.28;;;2.17;;
16870;SDS011;8552;48.120;-1.456;2022-09-27T16:24:03;8.07;;;1.90;;
16870;SDS011;8552;48.120;-1.456;2022-09-27T16:26:29;5.07;;;1.77;;
16870;SDS011;8552;48.120;-1.456;2022-09-27T16:28:55;6.85;;;1.83;;
16870;SDS011;8552;48.120;-1.456;2022-09-27T16:31:21;6.82;;;1.95;;
16870;SDS011;8552;48.120;-1.456;2022-09-27T16:33:47;6.82;;;1.55;;
16870;SDS011;8552;48.120;-1.456;2022-09-27T16:36:14;4.68;;;1.58;;
16870;SDS011;8552;48.120;-1.456;2022-09-27T16:38:46;7.03;;;1.88;;
16870;SDS011;8552;48.120;-1.456;2022-09-27T16:41:18;5.25;;;1.92;;
16870;SDS011;8552;48.120;-1.456;2022-09-27T16:43:45;4.78;;;1.92;;
16870;SDS011;8552;48.120;-1.456;2022-09-27T16:46:11;3.88;;;1.80;;
16870;SDS011;8552;48.120;-1.456;2022-09-27T16:48:40;8.10;;;1.65;;
16870;SDS011;8552;48.120;-1.456;2022-09-27T16:51:09;7.72;;;1.88;;
16870;SDS011;8552;48.120;-1.456;2022-09-27T16:53:56;2.92;;;1.40;;
16870;SDS011;8552;48.120;-1.456;2022-09-27T16:56:22;8.43;;;2.33;;
16870;SDS011;8552;48.120;-1.456;2022-09-27T16:58:47;3.22;;;1.50;;
16870;SDS011;8552;48.120;-1.456;2022-09-27T17:01:13;4.38;;;1.33;;
16870;SDS011;8552;48.120;-1.456;2022-09-27T17:03:41;3.03;;;1.42;;
16870;SDS011;8552;48.120;-1.456;2022-09-27T17:06:08;2.75;;;1.33;;
16870;SDS011;8552;48.120;-1.456;2022-09-27T17:08:34;2.88;;;1.48;;
16870;SDS011;8552;48.120;-1.456;2022-09-27T17:11:00;4.53;;;1.42;;
16870;SDS011;8552;48.120;-1.456;2022-09-27T17:13:25;2.85;;;1.83;;
16870;SDS011;8552;48.120;-1.456;2022-09-27T17:15:51;4.13;;;1.35;;
16870;SDS011;8552;48.120;-1.456;2022-09-27T17:18:18;4.15;;;1.10;;
16870;SDS011;8552;48.120;-1.456;2022-09-27T17:20:43;3.17;;;1.02;;
16870;SDS011;8552;48.120;-1.456;2022-09-27T17:23:09;2.13;;;0.90;;
16870;SDS011;8552;48.120;-1.456;2022-09-27T17:25:35;6.60;;;1.50;;
16870;SDS011;8552;48.120;-1.456;2022-09-27T17:28:00;5.07;;;1.45;;
16870;SDS011;8552;48.120;-1.456;2022-09-27T17:30:26;1.60;;;1.23;;
16870;SDS011;8552;48.120;-1.456;2022-09-27T17:32:52;2.20;;;1.25;;
16870;SDS011;8552;48.120;-1.456;2022-09-27T17:35:17;2.63;;;1.33;;